Time;durP1;ratioP1;P1;durP2;ratioP2;P2;SDS_P1;SDS_P2;PMS_P1;PMS_P2;Temp;Humidity;BMP_temperature;BMP_pressure;BME280_temperature;BME280_humidity;BME280_pressure;Samples;Min_cycle;Max_cycle;Signal;HPM_P1;HPM_P2
2022/03/20 00:00:27;;;;;;;22.83;9.50;;;4.40;90.90;;;;;;5050373;28;20421;-67
2022/03/20 00:02:55;;;;;;;11.07;7.70;;;4.50;91.10;;;;;;5050687;28;20217;-66
2022/03/20 00:05:20;;;;;;;14.83;7.87;;;4.40;90.90;;;;;;5049285;28;20234;-67
2022/03/20 00:07:46;;;;;;;16.27;7.37;;;4.40;90.90;;;;;;5049481;28;20484;-66
2022/03/20 00:10:12;;;;;;;13.90;7.17;;;4.40;90.20;;;;;;5034233;28;20178;-66
2022/03/20 00:12:40;;;;;;;14.57;7.30;;;4.40;90.30;;;;;;5054716;28;20255;-67
2022/03/20 00:15:06;;;;;;;9.30;6.90;;;4.50;90.10;;;;;;5054689;28;20489;-66
2022/03/20 00:17:32;;;;;;;9.30;7.10;;;4.40;90.00;;;;;;5054257;28;20469;-68
2022/03/20 00:19:58;;;;;;;11.07;8.93;;;4.40;89.40;;;;;;5054288;28;20401;-66
2022/03/20 00:22:24;;;;;;;12.27;8.30;;;4.50;88.80;;;;;;5054240;28;20521;-66
2022/03/20 00:24:50;;;;;;;9.83;8.57;;;4.50;88.20;;;;;;5054087;28;20186;-66
2022/03/20 00:27:16;;;;;;;11.93;7.17;;;4.50;87.60;;;;;;5054389;28;20503;-66
2022/03/20 00:29:42;;;;;;;13.23;7.60;;;4.50;86.50;;;;;;5054435;28;20179;-66
2022/03/20 00:32:10;;;;;;;11.60;8.10;;;4.50;86.60;;;;;;5054046;28;20448;-66
2022/03/20 00:34:36;;;;;;;9.20;8.10;;;4.50;86.50;;;;;;5053763;28;20425;-66
2022/03/20 00:37:02;;;;;;;15.37;9.40;;;4.50;86.50;;;;;;5054009;28;20458;-66
2022/03/20 00:39:28;;;;;;;11.77;7.17;;;4.50;86.10;;;;;;5054017;28;20409;-67
2022/03/20 00:41:53;;;;;;;8.17;6.87;;;4.50;86.10;;;;;;5053922;28;20543;-66
2022/03/20 00:44:19;;;;;;;11.50;6.30;;;4.40;86.40;;;;;;5053748;28;20237;-67
2022/03/20 00:46:44;;;;;;;10.57;7.33;;;4.40;86.80;;;;;;5053573;28;20214;-66
2022/03/20 00:49:10;;;;;;;22.00;9.07;;;4.30;87.10;;;;;;5054083;28;20687;-66
2022/03/20 00:51:36;;;;;;;11.90;6.67;;;4.30;86.80;;;;;;5053714;28;20163;-68
2022/03/20 00:54:01;;;;;;;10.37;6.00;;;4.30;86.60;;;;;;5054019;28;20219;-68
2022/03/20 00:56:27;;;;;;;11.30;8.27;;;4.30;86.20;;;;;;5053518;28;20166;-67
2022/03/20 00:58:53;;;;;;;12.17;8.23;;;4.30;86.20;;;;;;5053481;28;20225;-67
2022/03/20 01:01:18;;;;;;;11.93;8.30;;;4.30;86.60;;;;;;5053725;28;20171;-67
2022/03/20 01:03:44;;;;;;;12.90;8.30;;;4.30;86.80;;;;;;5053304;28;20210;-67
2022/03/20 01:06:10;;;;;;;11.70;7.83;;;4.20;86.50;;;;;;5053350;28;20252;-67
2022/03/20 01:08:37;;;;;;;11.03;7.00;;;4.20;86.20;;;;;;5053391;28;20213;-67
2022/03/20 01:11:07;;;;;;;9.30;6.37;;;4.20;86.30;;;;;;5053761;28;20436;-67
2022/03/20 01:13:33;;;;;;;19.20;10.00;;;4.20;86.20;;;;;;5053395;28;20422;-67
2022/03/20 01:15:59;;;;;;;13.43;9.00;;;4.20;86.10;;;;;;5053429;28;20500;-67
2022/03/20 01:18:25;;;;;;;11.57;7.40;;;4.20;85.90;;;;;;5053551;28;20785;-67
2022/03/20 01:20:51;;;;;;;9.53;7.70;;;4.20;86.10;;;;;;5052654;28;20221;-67
2022/03/20 01:23:17;;;;;;;7.83;6.27;;;4.10;86.70;;;;;;5053180;28;20199;-67
2022/03/20 01:25:42;;;;;;;10.97;7.33;;;4.10;87.00;;;;;;5053137;28;20417;-67
2022/03/20 01:28:09;;;;;;;10.50;7.13;;;4.00;86.90;;;;;;5053508;28;20172;-67
2022/03/20 01:30:34;;;;;;;14.07;9.00;;;4.00;86.60;;;;;;5054341;28;20514;-67
2022/03/20 01:33:00;;;;;;;22.13;7.43;;;4.00;86.40;;;;;;5053680;28;20398;-67
2022/03/20 01:35:26;;;;;;;15.10;6.80;;;4.00;85.80;;;;;;5052949;28;20217;-67
2022/03/20 01:37:51;;;;;;;12.53;7.50;;;4.00;86.00;;;;;;5053118;28;20437;-67
2022/03/20 01:40:17;;;;;;;14.77;6.80;;;4.00;85.30;;;;;;5053063;28;20178;-67
2022/03/20 01:42:43;;;;;;;14.57;7.60;;;4.10;84.70;;;;;;5052768;28;20261;-66
2022/03/20 01:45:17;;;;;;;10.43;6.83;;;4.00;85.20;;;;;;5052969;28;20578;-67
2022/03/20 01:47:46;;;;;;;8.00;5.77;;;3.90;86.20;;;;;;5052997;28;20448;-66
2022/03/20 01:50:16;;;;;;;8.50;6.20;;;3.80;86.80;;;;;;5052676;28;20452;-66
2022/03/20 01:52:43;;;;;;;11.47;8.40;;;3.80;86.80;;;;;;5052543;28;20434;-67
2022/03/20 01:55:09;;;;;;;11.27;9.20;;;3.80;86.60;;;;;;5052235;28;20421;-66
2022/03/20 01:57:37;;;;;;;13.47;8.23;;;3.80;86.30;;;;;;5052656;28;20405;-66
2022/03/20 02:00:04;;;;;;;8.33;7.50;;;3.80;86.90;;;;;;5052423;28;20297;-66
2022/03/20 02:02:30;;;;;;;9.03;7.20;;;3.70;87.50;;;;;;5052474;28;20409;-66
2022/03/20 02:04:55;;;;;;;8.90;6.63;;;3.70;87.70;;;;;;5061966;22;20473;-69
2022/03/20 02:07:22;;;;;;;9.80;6.90;;;3.60;87.80;;;;;;5033081;28;20575;-69
2022/03/20 02:09:48;;;;;;;11.40;7.47;;;3.60;87.80;;;;;;5033605;28;20222;-71
2022/03/20 02:12:14;;;;;;;15.77;9.57;;;3.60;87.80;;;;;;5034459;28;20417;-69
2022/03/20 02:14:40;;;;;;;10.90;7.77;;;3.70;87.00;;;;;;5033151;28;20427;-69
2022/03/20 02:17:07;;;;;;;12.40;9.83;;;3.70;87.10;;;;;;5033648;28;20420;-70
2022/03/20 02:19:34;;;;;;;11.63;7.60;;;3.60;87.30;;;;;;5033817;28;20187;-69
2022/03/20 02:22:00;;;;;;;12.97;8.53;;;3.50;87.50;;;;;;5037639;28;20442;-69
2022/03/20 02:24:41;;;;;;;13.73;7.33;;;3.50;87.80;;;;;;5043005;28;20429;-69
2022/03/20 02:27:21;;;;;;;14.23;7.00;;;3.50;88.50;;;;;;5044905;28;20295;-68
2022/03/20 02:29:49;;;;;;;9.70;7.00;;;3.50;88.00;;;;;;5015366;28;20425;-70
2022/03/20 02:32:17;;;;;;;17.57;6.67;;;3.50;88.40;;;;;;5032200;28;20587;-68
2022/03/20 02:34:46;;;;;;;7.30;6.00;;;3.40;88.30;;;;;;5032456;28;20434;-68
2022/03/20 02:37:13;;;;;;;8.57;6.93;;;3.40;88.60;;;;;;5032642;28;21022;-70
2022/03/20 02:39:39;;;;;;;11.23;7.30;;;3.40;88.00;;;;;;5032927;28;20900;-71
2022/03/20 02:42:07;;;;;;;11.13;7.43;;;3.40;87.70;;;;;;5032523;28;20414;-69
2022/03/20 02:44:52;;;;;;;14.23;6.70;;;3.50;87.10;;;;;;5032366;28;20187;-68
2022/03/20 02:47:23;;;;;;;9.60;7.47;;;3.50;87.10;;;;;;5032632;28;20533;-69
2022/03/20 02:49:50;;;;;;;9.73;6.87;;;3.40;87.60;;;;;;5032956;28;20421;-69
2022/03/20 02:52:16;;;;;;;14.63;7.20;;;3.40;87.70;;;;;;5033334;28;20491;-69
2022/03/20 02:54:47;;;;;;;12.70;8.40;;;3.30;87.90;;;;;;5033426;28;20512;-69
2022/03/20 02:57:13;;;;;;;10.93;7.20;;;3.30;88.30;;;;;;5032459;28;20552;-69
2022/03/20 02:59:39;;;;;;;12.47;8.33;;;3.30;88.40;;;;;;5033673;28;20415;-69
2022/03/20 03:02:05;;;;;;;11.83;8.37;;;3.20;88.50;;;;;;5032446;28;20175;-69
2022/03/20 03:04:30;;;;;;;11.23;6.37;;;3.20;88.60;;;;;;5031950;28;20450;-70
2022/03/20 03:07:02;;;;;;;6.57;5.37;;;3.20;88.70;;;;;;5032312;28;20196;-69
2022/03/20 03:12:11;;;;;;;8.70;6.67;;;3.10;88.90;;;;;;5032424;28;20417;-69
2022/03/20 03:17:27;;;;;;;8.17;6.93;;;3.20;88.60;;;;;;5032518;28;20178;-69
2022/03/20 03:19:54;;;;;;;12.83;7.80;;;3.20;88.50;;;;;;5014287;28;20425;-68
2022/03/20 03:22:20;;;;;;;9.67;6.50;;;3.20;88.30;;;;;;5031812;28;20840;-69
2022/03/20 03:24:45;;;;;;;13.60;7.43;;;3.20;88.20;;;;;;5031743;28;20438;-68
2022/03/20 03:27:11;;;;;;;11.73;8.10;;;3.20;88.30;;;;;;5031757;28;20248;-69
2022/03/20 03:29:36;;;;;;;10.30;7.27;;;3.20;88.50;;;;;;5031858;28;20190;-70
2022/03/20 03:32:02;;;;;;;11.77;7.90;;;3.10;88.50;;;;;;5032235;28;20182;-70
2022/03/20 03:37:18;;;;;;;12.20;6.37;;;3.10;88.80;;;;;;5000712;28;20190;-69
2022/03/20 03:39:44;;;;;;;11.73;7.07;;;3.00;89.00;;;;;;5031820;28;20395;-69
2022/03/20 03:42:10;;;;;;;10.07;6.30;;;3.00;89.10;;;;;;5014214;28;20432;-69
2022/03/20 03:44:36;;;;;;;9.90;7.27;;;3.00;89.30;;;;;;5035577;28;20832;-69
2022/03/20 03:47:01;;;;;;;7.20;6.40;;;3.00;89.50;;;;;;5035784;28;20685;-69
2022/03/20 03:49:26;;;;;;;8.97;6.27;;;3.00;89.70;;;;;;5018399;28;20167;-69
2022/03/20 03:51:52;;;;;;;13.50;7.60;;;2.90;90.00;;;;;;5036082;28;20262;-69
2022/03/20 03:54:17;;;;;;;10.53;6.37;;;2.90;90.00;;;;;;5035814;28;20191;-69
2022/03/20 03:56:43;;;;;;;17.23;8.43;;;2.90;90.00;;;;;;5035813;28;20175;-69
2022/03/20 03:59:10;;;;;;;12.93;7.40;;;2.90;90.10;;;;;;5036779;28;20190;-69
2022/03/20 04:01:36;;;;;;;11.27;7.03;;;2.80;90.10;;;;;;5035711;28;20170;-69
2022/03/20 04:04:01;;;;;;;9.23;7.53;;;2.80;90.10;;;;;;5035387;28;20446;-69
2022/03/20 04:06:27;;;;;;;11.80;6.80;;;2.80;90.00;;;;;;5035592;28;20205;-69
2022/03/20 04:08:54;;;;;;;15.00;7.03;;;2.80;90.10;;;;;;5035564;28;20537;-69
2022/03/20 04:11:19;;;;;;;9.70;6.70;;;2.80;90.10;;;;;;5035293;28;20402;-69
2022/03/20 04:13:45;;;;;;;12.50;8.33;;;2.80;90.20;;;;;;5035397;28;20449;-69
2022/03/20 04:16:11;;;;;;;15.73;7.90;;;2.80;90.10;;;;;;5035213;28;20179;-69
2022/03/20 04:18:36;;;;;;;7.97;6.77;;;2.80;90.30;;;;;;5035278;28;20433;-69
2022/03/20 04:21:02;;;;;;;10.80;7.43;;;2.70;90.40;;;;;;5035257;28;20225;-70
2022/03/20 04:23:45;;;;;;;14.63;8.23;;;2.70;90.30;;;;;;5035246;28;20175;-69
2022/03/20 04:26:14;;;;;;;13.10;7.13;;;2.70;90.30;;;;;;5035095;28;20203;-69
2022/03/20 04:28:40;;;;;;;14.47;10.37;;;2.70;90.50;;;;;;5035092;28;20410;-69
2022/03/20 04:31:05;;;;;;;16.00;6.10;;;2.60;90.60;;;;;;5035060;28;20418;-69
2022/03/20 04:33:31;;;;;;;16.53;7.93;;;2.60;90.80;;;;;;5035150;28;20649;-69
2022/03/20 04:35:57;;;;;;;12.73;7.90;;;2.50;90.90;;;;;;5017650;28;20220;-70
2022/03/20 04:38:22;;;;;;;9.80;7.00;;;2.50;91.30;;;;;;5035414;28;20422;-70
2022/03/20 04:40:49;;;;;;;10.00;6.73;;;2.40;91.40;;;;;;5035233;28;20410;-70
2022/03/20 04:43:17;;;;;;;12.87;7.37;;;2.40;91.50;;;;;;5035288;28;20509;-69
2022/03/20 04:45:43;;;;;;;12.80;7.03;;;2.40;91.60;;;;;;5016937;28;20504;-68
2022/03/20 04:59:04;;;;;;;11.17;7.37;;;2.20;92.20;;;;;;5034720;28;20401;-70
2022/03/20 05:01:30;;;;;;;17.63;8.33;;;2.20;92.30;;;;;;5034283;28;20410;-68
2022/03/20 05:03:55;;;;;;;13.53;7.97;;;2.10;92.40;;;;;;5034200;28;20223;-69
2022/03/20 05:06:21;;;;;;;15.40;7.37;;;2.10;92.50;;;;;;5034183;28;20192;-69
2022/03/20 05:08:46;;;;;;;12.70;7.13;;;2.10;92.60;;;;;;5034804;28;20630;-69
2022/03/20 05:13:56;;;;;;;11.47;7.20;;;2.10;92.40;;;;;;5034175;28;20194;-69
2022/03/20 05:16:21;;;;;;;18.10;10.00;;;2.10;92.40;;;;;;5034122;28;20893;-68
2022/03/20 05:18:47;;;;;;;11.37;7.87;;;2.10;92.40;;;;;;5034188;28;20240;-69
2022/03/20 05:21:12;;;;;;;9.33;7.37;;;2.10;92.40;;;;;;5034465;28;20186;-69
2022/03/20 05:23:39;;;;;;;10.83;7.10;;;2.10;92.40;;;;;;5034165;28;20176;-69
2022/03/20 05:26:05;;;;;;;11.00;6.00;;;2.10;92.50;;;;;;5034535;28;20223;-68
2022/03/20 05:28:30;;;;;;;8.40;5.67;;;2.00;92.40;;;;;;5034438;28;20500;-69
2022/03/20 05:30:56;;;;;;;11.70;6.80;;;2.00;92.30;;;;;;5034286;28;20792;-68
2022/03/20 05:33:22;;;;;;;15.60;8.03;;;2.00;92.40;;;;;;5033940;28;20159;-69
2022/03/20 05:35:47;;;;;;;8.63;5.80;;;2.00;92.40;;;;;;5034110;28;20231;-70
2022/03/20 05:38:13;;;;;;;9.67;7.67;;;2.00;92.30;;;;;;5033988;28;20624;-70
2022/03/20 05:40:40;;;;;;;7.90;7.20;;;2.00;92.30;;;;;;5033905;28;20642;-69
2022/03/20 05:43:09;;;;;;;7.73;5.40;;;2.00;92.20;;;;;;5033796;28;20912;-69
2022/03/20 05:45:39;;;;;;;17.07;10.30;;;2.10;92.00;;;;;;5033852;28;20437;-69
2022/03/20 05:48:08;;;;;;;10.37;7.93;;;2.10;91.90;;;;;;5034051;28;20417;-68
2022/03/20 05:50:33;;;;;;;8.00;6.63;;;2.20;91.90;;;;;;5033761;28;20940;-70
2022/03/20 05:52:58;;;;;;;10.83;7.53;;;2.20;91.90;;;;;;5033294;28;20493;-69
2022/03/20 05:58:01;;;;;;;9.07;8.20;;;2.20;91.70;;;;;;5033294;28;20335;-69
2022/03/20 05:58:13;;;;;;;14.77;6.57;;;2.20;91.50;;;;;;5033176;28;20661;-69
2022/03/20 06:00:42;;;;;;;8.37;6.87;;;2.30;91.40;;;;;;5033636;28;20403;-68
2022/03/20 06:03:09;;;;;;;16.03;8.20;;;2.40;91.10;;;;;;5033401;28;20421;-69
2022/03/20 06:05:35;;;;;;;9.50;6.47;;;2.50;90.90;;;;;;5032949;28;20442;-69
2022/03/20 06:08:01;;;;;;;9.70;8.70;;;2.70;91.00;;;;;;5033472;28;20461;-69
2022/03/20 06:10:26;;;;;;;19.73;10.43;;;3.10;90.70;;;;;;5033171;28;20450;-69
2022/03/20 06:12:52;;;;;;;15.97;7.13;;;3.80;89.70;;;;;;5033313;28;20185;-69
2022/03/20 06:15:17;;;;;;;14.60;7.43;;;4.20;88.00;;;;;;5014812;28;20300;-69
2022/03/20 06:17:47;;;;;;;14.57;6.97;;;4.90;87.00;;;;;;5015504;28;20622;-68
2022/03/20 06:20:15;;;;;;;9.70;7.43;;;5.20;84.40;;;;;;5033729;28;20287;-69
2022/03/20 06:22:42;;;;;;;9.77;7.20;;;5.10;83.60;;;;;;5034886;28;20414;-69
2022/03/20 06:25:08;;;;;;;13.20;8.47;;;5.00;83.80;;;;;;5035311;28;20967;-69
2022/03/20 06:27:53;;;;;;;10.37;7.83;;;5.10;83.80;;;;;;5035385;28;20951;-70
2022/03/20 06:30:20;;;;;;;10.53;7.70;;;5.40;83.50;;;;;;5035585;28;20421;-69
2022/03/20 06:32:47;;;;;;;12.53;8.07;;;5.70;81.70;;;;;;5034737;28;20410;-69
2022/03/20 06:35:14;;;;;;;9.60;7.30;;;6.00;80.90;;;;;;5033522;28;20434;-69
2022/03/20 06:37:42;;;;;;;9.07;7.80;;;6.00;80.70;;;;;;5034447;28;20410;-70
2022/03/20 06:40:09;;;;;;;11.67;8.53;;;6.10;80.10;;;;;;5033441;28;20418;-69
2022/03/20 06:42:36;;;;;;;13.43;7.77;;;6.10;80.00;;;;;;5034195;28;21116;-70
2022/03/20 06:45:04;;;;;;;12.23;7.70;;;5.90;79.30;;;;;;5034043;28;20438;-71
2022/03/20 06:47:32;;;;;;;16.20;8.80;;;5.90;79.70;;;;;;5032633;28;20525;-69
2022/03/20 06:49:58;;;;;;;14.27;8.53;;;5.80;78.90;;;;;;5032432;28;20406;-70
2022/03/20 06:52:24;;;;;;;14.00;6.63;;;6.40;78.20;;;;;;5032678;28;20425;-70
2022/03/20 06:54:50;;;;;;;13.67;8.00;;;6.80;78.40;;;;;;5032847;28;20929;-68
2022/03/20 06:57:19;;;;;;;13.37;8.73;;;6.40;76.80;;;;;;5032703;28;20210;-69
2022/03/20 06:59:45;;;;;;;12.57;8.90;;;5.70;77.20;;;;;;5032673;28;20410;-69
2022/03/20 07:02:11;;;;;;;11.53;8.40;;;5.60;78.50;;;;;;5032372;28;20448;-69
2022/03/20 07:04:37;;;;;;;12.17;7.70;;;5.80;78.60;;;;;;5032238;28;20902;-69
2022/03/20 07:07:02;;;;;;;15.60;8.27;;;6.40;79.40;;;;;;5032600;28;20226;-69
2022/03/20 07:09:28;;;;;;;9.00;7.90;;;6.50;76.70;;;;;;5032448;28;20168;-69
2022/03/20 07:11:53;;;;;;;13.53;8.53;;;6.10;77.00;;;;;;5032187;28;20171;-69
2022/03/20 07:14:19;;;;;;;12.80;7.47;;;5.90;77.80;;;;;;5032383;28;20247;-70
2022/03/20 07:16:44;;;;;;;14.63;9.10;;;5.90;77.70;;;;;;5032161;28;20682;-69
2022/03/20 07:19:10;;;;;;;12.93;7.87;;;6.20;77.00;;;;;;5031766;28;20172;-69
2022/03/20 07:21:36;;;;;;;14.10;8.70;;;6.60;76.80;;;;;;5031945;28;20688;-69
2022/03/20 07:24:02;;;;;;;11.83;8.07;;;7.00;75.60;;;;;;5032082;28;20423;-69
2022/03/20 07:29:30;;;;;;;9.40;7.77;;;6.30;74.50;;;;;;5032127;28;20904;-69
2022/03/20 07:31:59;;;;;;;11.57;9.27;;;6.60;74.80;;;;;;5031956;28;20402;-69
2022/03/20 07:34:26;;;;;;;15.87;10.47;;;6.80;73.50;;;;;;5031922;28;20460;-69
2022/03/20 07:36:51;;;;;;;13.73;8.37;;;6.90;73.00;;;;;;5031737;28;20923;-70
2022/03/20 07:39:17;;;;;;;13.60;8.20;;;7.30;72.40;;;;;;5031874;28;20402;-70
2022/03/20 07:41:43;;;;;;;14.47;7.70;;;7.20;73.40;;;;;;5031922;28;20511;-69
2022/03/20 07:44:08;;;;;;;11.77;8.27;;;7.40;72.60;;;;;;5031586;28;20197;-70
2022/03/20 07:46:34;;;;;;;13.50;7.67;;;7.30;71.00;;;;;;5031423;28;20188;-70
2022/03/20 07:49:00;;;;;;;11.03;7.93;;;7.60;71.30;;;;;;5031706;28;20177;-69
2022/03/20 07:51:26;;;;;;;14.10;8.87;;;7.60;69.70;;;;;;5031635;28;20230;-69
2022/03/20 07:53:52;;;;;;;12.80;8.13;;;7.60;70.60;;;;;;5031953;28;20423;-69
2022/03/20 07:56:22;;;;;;;12.63;8.20;;;7.60;70.30;;;;;;5031596;28;20218;-68
2022/03/20 07:58:48;;;;;;;15.90;7.67;;;7.90;68.90;;;;;;5031875;28;20178;-68
2022/03/20 08:01:14;;;;;;;11.57;8.10;;;8.00;69.90;;;;;;5031227;28;20808;-68
2022/03/20 08:03:41;;;;;;;14.20;7.30;;;7.80;68.60;;;;;;5031207;28;20410;-70
2022/03/20 08:06:07;;;;;;;14.90;9.07;;;8.30;69.20;;;;;;5070619;23;20223;-65
2022/03/20 08:08:36;;;;;;;9.13;6.80;;;8.00;68.20;;;;;;5034669;28;20486;-66
2022/03/20 08:11:02;;;;;;;12.73;7.17;;;8.20;68.00;;;;;;5050602;28;20403;-66
2022/03/20 08:13:30;;;;;;;13.37;7.07;;;8.70;67.70;;;;;;5050612;28;20488;-67
2022/03/20 08:15:56;;;;;;;15.47;9.57;;;9.30;65.60;;;;;;5049216;28;20422;-66
2022/03/20 08:18:22;;;;;;;13.30;8.20;;;9.20;65.30;;;;;;5050595;28;20400;-66
2022/03/20 08:20:47;;;;;;;10.90;8.90;;;9.10;64.70;;;;;;5050306;28;20179;-67
2022/03/20 08:23:12;;;;;;;15.80;8.47;;;9.10;64.40;;;;;;5050559;28;20175;-67
2022/03/20 08:25:38;;;;;;;14.90;9.77;;;8.90;63.50;;;;;;5050274;28;20183;-68
2022/03/20 08:28:05;;;;;;;14.17;8.20;;;8.70;64.00;;;;;;5050378;28;20676;-68
2022/03/20 08:30:31;;;;;;;14.50;8.20;;;9.20;64.40;;;;;;5054419;28;20236;-69
2022/03/20 08:32:57;;;;;;;22.67;8.37;;;9.50;63.20;;;;;;5054272;28;20410;-68
2022/03/20 08:35:23;;;;;;;12.60;8.80;;;9.80;62.40;;;;;;5054127;28;20424;-68
2022/03/20 08:37:50;;;;;;;14.10;8.40;;;9.30;62.30;;;;;;5054123;28;20178;-66
2022/03/20 08:40:17;;;;;;;13.00;8.17;;;9.50;62.80;;;;;;5054114;28;20655;-67
2022/03/20 08:42:54;;;;;;;16.23;10.20;;;9.20;61.30;;;;;;5053925;28;20412;-66
2022/03/20 08:45:21;;;;;;;14.00;7.67;;;9.30;62.30;;;;;;5053858;28;20508;-68
2022/03/20 08:47:46;;;;;;;12.77;8.40;;;10.40;60.00;;;;;;5054541;28;20531;-67
2022/03/20 08:50:14;;;;;;;15.27;8.00;;;10.10;58.90;;;;;;5053923;28;20919;-66
2022/03/20 08:52:41;;;;;;;13.43;8.87;;;9.70;59.30;;;;;;5053905;28;20195;-66
2022/03/20 08:55:10;;;;;;;10.10;8.50;;;10.00;59.10;;;;;;5053992;28;20448;-68
2022/03/20 08:57:40;;;;;;;10.40;8.67;;;10.30;58.60;;;;;;5053950;28;20828;-69
2022/03/20 09:00:09;;;;;;;13.10;8.07;;;10.20;58.90;;;;;;5054051;28;20412;-68
2022/03/20 09:02:34;;;;;;;13.40;9.10;;;10.00;58.40;;;;;;5046714;28;20468;-67
2022/03/20 09:05:00;;;;;;;10.87;7.47;;;9.90;58.70;;;;;;5049864;28;20449;-66
2022/03/20 09:07:25;;;;;;;13.67;8.70;;;9.80;59.40;;;;;;5034183;28;20195;-67
2022/03/20 09:09:50;;;;;;;13.77;9.67;;;9.90;59.10;;;;;;5035220;28;20168;-68
2022/03/20 09:12:16;;;;;;;11.63;7.57;;;10.30;58.50;;;;;;5033479;28;20164;-69
2022/03/20 09:14:41;;;;;;;10.80;7.50;;;10.30;57.90;;;;;;5033443;28;20193;-68
2022/03/20 09:19:55;;;;;;;14.27;9.00;;;10.60;57.70;;;;;;5035437;28;20195;-68
2022/03/20 09:22:20;;;;;;;11.10;7.37;;;10.70;57.20;;;;;;5033712;28;20407;-68
2022/03/20 09:24:46;;;;;;;12.97;8.10;;;10.80;56.30;;;;;;5033506;28;20433;-68
2022/03/20 09:27:11;;;;;;;12.70;8.37;;;11.10;56.70;;;;;;5015658;28;20285;-68
2022/03/20 09:29:37;;;;;;;10.67;9.60;;;11.10;56.00;;;;;;5033468;28;20175;-69
2022/03/20 09:32:02;;;;;;;11.07;8.60;;;11.40;55.50;;;;;;5051980;28;20175;-68
2022/03/20 09:34:32;;;;;;;14.10;9.00;;;11.40;55.00;;;;;;5053209;28;20237;-68
2022/03/20 09:36:58;;;;;;;14.80;9.03;;;11.20;54.90;;;;;;5036761;28;20642;-69
2022/03/20 09:39:25;;;;;;;8.80;7.73;;;11.20;54.60;;;;;;5033427;28;20407;-70
2022/03/20 09:41:54;;;;;;;14.77;9.90;;;11.50;54.70;;;;;;5049715;28;20417;-70
2022/03/20 09:44:23;;;;;;;37.03;17.60;;;11.40;54.50;;;;;;5053076;28;20437;-71
2022/03/20 09:46:49;;;;;;;23.97;16.53;;;11.20;57.80;;;;;;5053088;28;20498;-70
2022/03/20 09:49:16;;;;;;;42.23;20.37;;;11.10;59.60;;;;;;5053043;28;20409;-67
2022/03/20 09:51:43;;;;;;;27.47;18.13;;;11.20;61.20;;;;;;5053038;28;20509;-68
2022/03/20 09:54:09;;;;;;;19.60;12.83;;;11.10;58.80;;;;;;5052761;28;20406;-67
2022/03/20 09:56:34;;;;;;;16.73;10.90;;;11.30;59.00;;;;;;5053322;28;20507;-67
2022/03/20 09:59:00;;;;;;;19.80;12.87;;;11.20;56.60;;;;;;5053091;28;20425;-67
2022/03/20 10:01:25;;;;;;;17.67;12.30;;;11.20;57.10;;;;;;5052934;28;20173;-68
2022/03/20 10:04:15;;;;;;;18.30;13.27;;;11.00;57.60;;;;;;5052875;28;20209;-67
2022/03/20 10:06:42;;;;;;;15.20;10.80;;;11.00;59.10;;;;;;5051493;28;20268;-67
2022/03/20 10:09:10;;;;;;;14.47;10.47;;;10.90;57.90;;;;;;5051156;28;20401;-66
2022/03/20 10:11:48;;;;;;;17.97;13.10;;;11.00;56.80;;;;;;5052617;28;20394;-66
2022/03/20 10:14:26;;;;;;;18.80;10.87;;;10.70;57.10;;;;;;5052675;28;20401;-66
2022/03/20 10:16:54;;;;;;;14.80;8.40;;;10.50;61.10;;;;;;5052871;28;20408;-66
2022/03/20 10:19:22;;;;;;;17.13;9.73;;;10.30;55.50;;;;;;5052732;28;20407;-67
2022/03/20 10:21:52;;;;;;;12.93;9.77;;;10.50;58.00;;;;;;5052450;28;20447;-65
2022/03/20 10:24:20;;;;;;;15.73;8.80;;;10.20;55.90;;;;;;5052251;28;20433;-65
2022/03/20 10:27:11;;;;;;;15.60;10.00;;;10.20;57.00;;;;;;5052235;28;20449;-66
2022/03/20 10:29:47;;;;;;;15.20;8.57;;;10.30;57.80;;;;;;5051790;28;20455;-65
2022/03/20 10:32:12;;;;;;;9.83;8.03;;;10.20;57.00;;;;;;5052167;28;20512;-65
2022/03/20 10:34:56;;;;;;;9.50;7.57;;;10.50;56.40;;;;;;5052055;28;20488;-65
2022/03/20 10:37:47;;;;;;;10.43;6.43;;;10.40;55.90;;;;;;5040730;28;20175;-65
2022/03/20 10:40:16;;;;;;;10.30;7.27;;;10.30;55.30;;;;;;5032135;28;20433;-66
2022/03/20 10:42:44;;;;;;;10.43;6.50;;;10.20;54.00;;;;;;5031976;28;20510;-66
2022/03/20 10:45:10;;;;;;;10.73;7.67;;;10.50;53.80;;;;;;5031976;28;20900;-65
2022/03/20 10:47:36;;;;;;;9.30;7.60;;;10.40;53.10;;;;;;5032470;28;20446;-67
2022/03/20 10:50:04;;;;;;;7.97;6.03;;;10.60;53.40;;;;;;5033481;28;20433;-66
2022/03/20 10:52:30;;;;;;;9.77;6.87;;;10.80;53.00;;;;;;5051281;28;20170;-66
2022/03/20 10:54:56;;;;;;;13.80;7.13;;;10.90;52.20;;;;;;5051726;28;20429;-66
2022/03/20 10:57:34;;;;;;;12.30;6.10;;;10.70;51.40;;;;;;5034192;28;20403;-66
2022/03/20 11:00:10;;;;;;;8.37;6.60;;;10.40;51.10;;;;;;5052153;28;20647;-65
2022/03/20 11:02:39;;;;;;;10.30;6.20;;;10.30;51.50;;;;;;5051835;28;20417;-66
2022/03/20 11:05:05;;;;;;;16.70;9.00;;;10.40;51.70;;;;;;5051772;28;20441;-65
2022/03/20 11:07:31;;;;;;;8.70;6.07;;;10.60;51.70;;;;;;5051736;28;20887;-66
2022/03/20 11:09:57;;;;;;;9.40;5.73;;;10.60;50.40;;;;;;5051700;28;20467;-69
2022/03/20 11:12:26;;;;;;;10.00;5.83;;;10.40;50.90;;;;;;5053553;28;20403;-68
2022/03/20 11:14:58;;;;;;;9.57;6.40;;;10.50;50.50;;;;;;5051899;28;20192;-69
2022/03/20 11:17:29;;;;;;;7.93;5.80;;;10.50;50.10;;;;;;5052103;28;20959;-67
2022/03/20 11:19:57;;;;;;;10.87;6.23;;;10.60;50.60;;;;;;5051808;28;20390;-66
2022/03/20 11:22:24;;;;;;;7.33;5.63;;;10.60;50.10;;;;;;5051511;28;20414;-67
2022/03/20 11:24:52;;;;;;;9.10;6.33;;;10.60;50.40;;;;;;5051579;28;20436;-67
2022/03/20 11:27:30;;;;;;;8.10;5.67;;;10.90;50.20;;;;;;5051539;28;20517;-66
2022/03/20 11:30:01;;;;;;;7.30;6.57;;;10.90;49.60;;;;;;5051756;28;20413;-67
2022/03/20 11:32:28;;;;;;;9.70;6.57;;;11.00;49.50;;;;;;5051843;28;20410;-66
2022/03/20 11:34:53;;;;;;;9.00;5.90;;;11.00;49.40;;;;;;5051406;28;20421;-66
2022/03/20 11:37:19;;;;;;;6.77;5.70;;;11.00;49.00;;;;;;5050387;28;20829;-67
2022/03/20 11:40:11;;;;;;;8.20;6.37;;;10.90;49.40;;;;;;5051237;28;20217;-67
2022/03/20 11:42:38;;;;;;;10.77;7.80;;;11.00;49.80;;;;;;5051163;28;20199;-68
2022/03/20 11:45:04;;;;;;;10.63;6.23;;;11.00;49.80;;;;;;5051224;28;20890;-67
2022/03/20 11:47:31;;;;;;;9.53;7.67;;;11.10;49.80;;;;;;5050939;28;20484;-67
2022/03/20 11:50:17;;;;;;;9.77;6.07;;;11.10;49.80;;;;;;5038002;28;20417;-67
2022/03/20 11:52:45;;;;;;;10.93;6.67;;;11.00;50.10;;;;;;5013366;28;20413;-67
2022/03/20 11:55:29;;;;;;;12.87;6.80;;;11.10;50.40;;;;;;5031132;28;20774;-68
2022/03/20 11:57:56;;;;;;;7.43;6.17;;;11.20;50.40;;;;;;5031567;28;20406;-67
2022/03/20 12:00:29;;;;;;;11.10;6.90;;;11.10;50.30;;;;;;5030787;28;20790;-67
2022/03/20 12:03:01;;;;;;;11.20;6.97;;;11.20;50.60;;;;;;5039215;28;20420;-68
2022/03/20 12:05:41;;;;;;;10.87;7.23;;;11.20;50.00;;;;;;5053950;28;20512;-67
2022/03/20 12:08:28;;;;;;;11.20;7.30;;;11.30;49.70;;;;;;5054765;28;20535;-67
2022/03/20 12:11:27;;;;;;;12.03;6.33;;;11.40;49.70;;;;;;5054622;28;20409;-67
2022/03/20 12:14:17;;;;;;;11.33;6.90;;;11.40;49.60;;;;;;5054757;28;20859;-67
2022/03/20 12:16:49;;;;;;;11.90;6.90;;;11.60;49.00;;;;;;5054709;28;20440;-67
2022/03/20 12:19:24;;;;;;;11.40;8.00;;;11.70;48.80;;;;;;5054683;28;20493;-67
2022/03/20 12:22:06;;;;;;;10.43;6.43;;;11.60;49.30;;;;;;5054582;28;20385;-66
2022/03/20 12:24:35;;;;;;;13.93;7.17;;;11.80;49.60;;;;;;5054263;28;20432;-67
2022/03/20 12:27:19;;;;;;;9.43;7.50;;;12.00;49.40;;;;;;5054256;28;20506;-67
2022/03/20 12:29:46;;;;;;;6.20;5.60;;;12.00;48.50;;;;;;5054454;28;20915;-67
2022/03/20 12:32:12;;;;;;;10.93;6.50;;;11.90;48.00;;;;;;5054064;28;20455;-67
2022/03/20 12:34:39;;;;;;;6.93;6.07;;;11.90;47.90;;;;;;5054186;28;20420;-67
2022/03/20 12:37:29;;;;;;;9.57;7.27;;;11.70;47.10;;;;;;5054395;28;20470;-67
2022/03/20 12:40:20;;;;;;;8.47;5.83;;;11.80;47.10;;;;;;5054183;28;20409;-66
2022/03/20 12:43:07;;;;;;;7.40;5.27;;;12.00;47.10;;;;;;5053982;28;20428;-67
2022/03/20 12:45:34;;;;;;;9.13;6.10;;;12.00;47.10;;;;;;5053788;28;20444;-67
2022/03/20 12:48:02;;;;;;;10.00;5.93;;;12.00;47.10;;;;;;5053449;28;20572;-66
2022/03/20 12:50:31;;;;;;;6.80;5.80;;;12.00;46.90;;;;;;5052693;28;20500;-67
2022/03/20 12:53:06;;;;;;;9.10;5.87;;;12.00;47.10;;;;;;5052704;28;20405;-67
2022/03/20 12:55:32;;;;;;;8.00;6.57;;;12.20;47.10;;;;;;5052952;28;20440;-69
2022/03/20 12:57:58;;;;;;;7.27;5.50;;;12.20;47.20;;;;;;5053692;28;20421;-68
2022/03/20 13:00:27;;;;;;;11.07;6.53;;;12.20;46.80;;;;;;5053949;28;20475;-68
2022/03/20 13:03:10;;;;;;;11.80;7.20;;;12.30;46.10;;;;;;5053184;28;20187;-67
2022/03/20 13:05:38;;;;;;;9.57;7.20;;;12.30;45.90;;;;;;5053574;28;20854;-68
2022/03/20 13:08:05;;;;;;;9.97;7.23;;;12.30;46.10;;;;;;5053882;28;20572;-68
2022/03/20 13:10:34;;;;;;;5.40;4.90;;;12.30;45.80;;;;;;5053801;28;20414;-67
2022/03/20 13:13:02;;;;;;;10.20;5.80;;;12.20;45.60;;;;;;5053639;28;20406;-67
2022/03/20 13:15:33;;;;;;;7.70;6.50;;;12.30;46.20;;;;;;5053269;28;20436;-68
2022/03/20 13:18:00;;;;;;;10.10;6.50;;;12.40;46.30;;;;;;5053547;28;20582;-68